Time;durP1;ratioP1;P1;durP2;ratioP2;P2;SDS_P1;SDS_P2;PMS_P1;PMS_P2;Temp;Humidity;BMP_temperature;BMP_pressure;BME280_temperature;BME280_humidity;BME280_pressure;Samples;Min_cycle;Max_cycle;Signal;HPM_P1;HPM_P2
2022/01/04 00:00:42;;;;;;;;;;;;;;;7.94;91.85;100085.66;4965311;30;19933;-80
2022/01/04 00:03:13;;;;;;;;;;;;;;;7.88;92.23;100075.34;4964121;30;19918;-78
2022/01/04 00:05:45;;;;;;;;;;;;;;;7.81;92.83;100071.97;4964879;30;19922;-83
2022/01/04 00:08:16;;;;;;;;;;;;;;;7.78;93.12;100059.03;4963694;30;19965;-75
2022/01/04 00:10:49;;;;;;;;;;;;;;;7.81;92.96;100064.19;4948018;30;19925;-80
2022/01/04 00:13:24;;;;;;;;;;;;;;;7.80;93.18;100069.41;4963886;30;19929;-82
2022/01/04 00:15:56;;;;;;;;;;;;;;;7.77;93.01;100049.53;4964458;30;20375;-82
2022/01/04 00:18:27;;;;;;;;;;;;;;;7.79;93.00;100052.97;4964431;30;19921;-81
2022/01/04 00:20:58;;;;;;;;;;;;;;;7.75;93.38;100042.66;4964311;30;19922;-81
2022/01/04 00:23:30;;;;;;;;;;;;;;;7.75;93.24;100050.44;4964617;30;19932;-83
2022/01/04 00:26:01;;;;;;;;;;;;;;;7.73;93.45;100039.22;4964511;30;19953;-81
2022/01/04 00:28:32;;;;;;;;;;;;;;;7.73;93.46;100031.41;4964412;30;20275;-82
2022/01/04 00:31:04;;;;;;;;;;;;;;;7.77;93.00;100022.72;4964677;30;19922;-81
2022/01/04 00:33:36;;;;;;;;;;;;;;;7.71;93.50;100017.63;4966942;30;19922;-77
2022/01/04 00:36:08;;;;;;;;;;;;;;;7.76;93.42;100003.72;4967668;30;19922;-73
2022/01/04 00:38:39;;;;;;;;;;;;;;;7.70;93.43;99998.63;4968118;30;19929;-82
2022/01/04 00:41:11;;;;;;;;;;;;;;;7.72;93.33;100001.19;4968373;30;19921;-80
2022/01/04 00:43:44;;;;;;;;;;;;;;;7.70;93.83;99992.59;4968123;30;19932;-82
2022/01/04 00:46:17;;;;;;;;;;;;;;;7.71;93.38;99982.19;4968136;30;19929;-82
2022/01/04 00:51:39;;;;;;;;;;;;;;;7.68;94.13;99987.41;4967239;30;20331;-82
2022/01/04 00:54:10;;;;;;;;;;;;;;;7.71;93.59;99981.31;4967380;30;19921;-83
2022/01/04 00:56:43;;;;;;;;;;;;;;;7.70;93.27;99972.69;4967101;30;19922;-75
2022/01/04 00:59:15;;;;;;;;;;;;;;;7.67;93.46;99970.97;4966761;30;19922;-81
2022/01/04 01:01:46;;;;;;;;;;;;;;;7.61;94.16;99975.38;4967288;30;19925;-82
2022/01/04 01:04:18;;;;;;;;;;;;;;;7.59;94.01;99962.44;4967237;30;19921;-81
2022/01/04 01:06:49;;;;;;;;;;;;;;;7.53;94.82;99956.47;4967105;30;20051;-78
2022/01/04 01:09:23;;;;;;;;;;;;;;;7.54;94.81;99958.22;4967060;30;19944;-82
2022/01/04 01:11:54;;;;;;;;;;;;;;;7.58;94.23;99955.56;4966890;30;19922;-79
2022/01/04 01:14:25;;;;;;;;;;;;;;;7.54;94.43;99964.25;4966604;30;19922;-78
2022/01/04 01:16:56;;;;;;;;;;;;;;;7.57;94.13;99959.03;4966416;30;20009;-82
2022/01/04 01:19:28;;;;;;;;;;;;;;;7.49;94.57;99961.72;4966712;30;19998;-78
2022/01/04 01:21:59;;;;;;;;;;;;;;;7.52;94.82;99954.75;4966234;30;20469;-81
2022/01/04 01:24:30;;;;;;;;;;;;;;;7.47;94.75;99950.50;4966204;30;19922;-75
2022/01/04 01:27:01;;;;;;;;;;;;;;;7.54;94.89;99956.47;4966226;30;19922;-83
2022/01/04 01:29:33;;;;;;;;;;;;;;;7.53;94.11;99944.38;4967477;30;20075;-80
2022/01/04 01:32:04;;;;;;;;;;;;;;;7.44;94.71;99936.72;4968483;30;19929;-83
2022/01/04 01:34:36;;;;;;;;;;;;;;;7.47;94.33;99937.53;4967699;30;19978;-82
2022/01/04 01:37:07;;;;;;;;;;;;;;;7.46;94.70;99929.78;4967521;30;19951;-82
2022/01/04 01:39:38;;;;;;;;;;;;;;;7.54;94.09;99930.53;4966718;30;20017;-82
2022/01/04 01:42:10;;;;;;;;;;;;;;;7.40;94.88;99933.31;4966858;30;19922;-83
2022/01/04 01:44:41;;;;;;;;;;;;;;;7.44;94.32;99916.00;4966553;30;19935;-74
2022/01/04 01:47:12;;;;;;;;;;;;;;;7.42;94.43;99912.53;4966490;30;19933;-82
2022/01/04 01:49:44;;;;;;;;;;;;;;;7.39;94.60;99912.56;4966841;30;19967;-80
2022/01/04 01:52:16;;;;;;;;;;;;;;;7.43;94.38;99916.84;4966786;30;20041;-75
2022/01/04 01:54:48;;;;;;;;;;;;;;;7.36;94.86;99904.84;4966590;30;19917;-82
2022/01/04 01:57:19;;;;;;;;;;;;;;;7.39;94.91;99907.38;4966577;30;19918;-81
2022/01/04 01:59:50;;;;;;;;;;;;;;;7.41;94.70;99909.09;4968386;30;19922;-81
2022/01/04 02:02:22;;;;;;;;;;;;;;;7.39;94.74;99908.28;4971272;30;19921;-84
2022/01/04 02:04:53;;;;;;;;;;;;;;;7.38;94.61;99916.06;4973146;30;19921;-84
2022/01/04 02:07:24;;;;;;;;;;;;;;;7.34;94.58;99907.47;4970414;30;19926;-79
2022/01/04 02:10:03;;;;;;;;;;;;;;;7.25;95.34;99886.88;4968183;30;19921;-84
2022/01/04 02:12:35;;;;;;;;;;;;;;;7.35;94.82;99880.66;4968548;30;19921;-76
2022/01/04 02:15:08;;;;;;;;;;;;;;;7.27;95.14;99888.53;4967778;30;20304;-81
2022/01/04 02:17:39;;;;;;;;;;;;;;;7.32;94.37;99879.84;4974540;30;20033;-80
2022/01/04 02:20:11;;;;;;;;;;;;;;;7.26;94.83;99873.88;4975434;30;19933;-81
2022/01/04 02:22:43;;;;;;;;;;;;;;;7.24;94.84;99865.25;4976143;30;19929;-76
2022/01/04 02:25:14;;;;;;;;;;;;;;;7.21;95.30;99862.72;4971591;30;19922;-83
2022/01/04 02:27:45;;;;;;;;;;;;;;;7.25;94.75;99866.97;4970407;30;19979;-81
2022/01/04 02:30:18;;;;;;;;;;;;;;;7.23;95.04;99860.97;4968530;30;19921;-86
2022/01/04 02:32:49;;;;;;;;;;;;;;;7.23;94.96;99865.25;4967883;30;19922;-83
2022/01/04 02:35:25;;;;;;;;;;;;;;;7.24;94.93;99860.06;4967374;30;19928;-84
2022/01/04 02:37:57;;;;;;;;;;;;;;;7.33;94.44;99866.03;4966539;30;19921;-83
2022/01/04 02:40:29;;;;;;;;;;;;;;;7.22;94.75;99860.97;4950624;30;19979;-84
2022/01/04 02:43:00;;;;;;;;;;;;;;;7.23;94.77;99860.97;4965843;30;20438;-74
2022/01/04 02:45:32;;;;;;;;;;;;;;;7.26;94.58;99852.25;4966585;30;19957;-84
2022/01/04 02:48:03;;;;;;;;;;;;;;;7.20;94.54;99845.44;4965499;30;20376;-83
2022/01/04 02:50:34;;;;;;;;;;;;;;;7.17;94.89;99842.91;4965778;30;19928;-85
2022/01/04 02:53:06;;;;;;;;;;;;;;;7.33;94.22;99834.91;4966210;30;19922;-82
2022/01/04 02:55:37;;;;;;;;;;;;;;;7.24;94.27;99831.53;4965531;30;19917;-81
2022/01/04 02:58:08;;;;;;;;;;;;;;;7.23;94.16;99832.44;4966004;30;19922;-81
2022/01/04 03:00:40;;;;;;;;;;;;;;;7.18;94.38;99818.69;4966378;30;20488;-82
2022/01/04 03:03:11;;;;;;;;;;;;;;;7.16;94.42;99817.84;4964648;30;19926;-73
2022/01/04 03:05:42;;;;;;;;;;;;;;;7.22;94.17;99812.56;4964987;30;19970;-83
2022/01/04 03:08:13;;;;;;;;;;;;;;;7.24;93.88;99817.75;4964455;30;19986;-76
2022/01/04 03:10:45;;;;;;;;;;;;;;;7.18;93.99;99815.22;4965247;30;20398;-79
2022/01/04 03:13:16;;;;;;;;;;;;;;;7.18;93.88;99810.03;4965861;30;19925;-83
2022/01/04 03:15:47;;;;;;;;;;;;;;;7.10;94.07;99797.22;4965707;30;20371;-81
2022/01/04 03:18:19;;;;;;;;;;;;;;;7.18;93.78;99789.31;4966863;30;19921;-84
2022/01/04 03:20:50;;;;;;;;;;;;;;;7.10;94.20;99785.13;4965292;30;20027;-84
2022/01/04 03:23:21;;;;;;;;;;;;;;;7.15;93.73;99781.56;4965479;30;19917;-81
2022/01/04 03:25:52;;;;;;;;;;;;;;;7.11;94.36;99773.00;4965079;30;19926;-83
2022/01/04 03:28:24;;;;;;;;;;;;;;;7.12;94.35;99769.53;4965756;30;19928;-75
2022/01/04 03:30:55;;;;;;;;;;;;;;;7.10;94.56;99754.00;4965958;30;19921;-83
2022/01/04 03:33:26;;;;;;;;;;;;;;;7.12;94.41;99757.44;4965722;30;19925;-79
2022/01/04 03:35:57;;;;;;;;;;;;;;;7.13;94.38;99753.09;4965796;30;19929;-79
2022/01/04 03:38:29;;;;;;;;;;;;;;;7.06;94.87;99741.97;4965827;30;19925;-82
2022/01/04 03:41:00;;;;;;;;;;;;;;;7.11;94.46;99734.97;4965533;30;19929;-83
2022/01/04 03:43:32;;;;;;;;;;;;;;;7.09;94.54;99733.31;4965832;30;20020;-83
2022/01/04 03:46:06;;;;;;;;;;;;;;;7.05;94.86;99721.25;4965682;30;19952;-80
2022/01/04 03:48:38;;;;;;;;;;;;;;;7.06;94.76;99712.63;4966293;30;19922;-81
2022/01/04 03:51:09;;;;;;;;;;;;;;;7.03;95.03;99712.66;4965837;30;19921;-83
2022/01/04 03:53:41;;;;;;;;;;;;;;;7.01;95.12;99704.91;4965469;30;19921;-75
2022/01/04 03:56:12;;;;;;;;;;;;;;;7.02;95.19;99705.75;4964769;30;19937;-80
2022/01/04 03:58:44;;;;;;;;;;;;;;;7.01;95.24;99694.53;4965518;30;19921;-82
2022/01/04 04:01:15;;;;;;;;;;;;;;;7.03;95.25;99690.19;4965754;30;20310;-84
2022/01/04 04:03:46;;;;;;;;;;;;;;;7.00;95.21;99692.81;4965659;30;19922;-82
2022/01/04 04:06:17;;;;;;;;;;;;;;;7.02;95.22;99690.22;4964992;30;19975;-82
2022/01/04 04:08:49;;;;;;;;;;;;;;;7.01;95.52;99678.16;4969350;30;19957;-82
2022/01/04 04:11:20;;;;;;;;;;;;;;;7.02;95.01;99669.47;4968950;30;19921;-83
2022/01/04 04:13:52;;;;;;;;;;;;;;;7.01;95.21;99672.97;4968504;30;19922;-82
2022/01/04 04:16:23;;;;;;;;;;;;;;;7.00;95.48;99676.44;4968087;30;19938;-75
2022/01/04 04:18:54;;;;;;;;;;;;;;;6.97;95.82;99659.22;4967204;30;19922;-81
2022/01/04 04:21:25;;;;;;;;;;;;;;;6.96;95.92;99659.25;4968171;30;19922;-80
2022/01/04 04:23:57;;;;;;;;;;;;;;;7.01;95.59;99657.44;4967832;30;19965;-81
2022/01/04 04:26:28;;;;;;;;;;;;;;;6.96;95.72;99651.47;4968441;30;19979;-78
2022/01/04 04:28:59;;;;;;;;;;;;;;;6.96;96.21;99649.72;4968011;30;19922;-82
2022/01/04 04:31:30;;;;;;;;;;;;;;;6.94;96.20;99649.75;4967680;30;20484;-80
2022/01/04 05:06:36;;;;;;;;;;;;;;;6.91;96.42;99638.59;5466390;24;19930;-77
2022/01/04 05:09:07;;;;;;;;;;;;;;;6.90;96.19;99619.56;4965594;30;19930;-73
2022/01/04 05:11:38;;;;;;;;;;;;;;;7.00;95.90;99632.38;4967211;30;19928;-80
2022/01/04 05:14:09;;;;;;;;;;;;;;;6.96;96.23;99643.69;4967422;30;19921;-80
2022/01/04 05:16:41;;;;;;;;;;;;;;;6.96;95.69;99631.59;4966813;30;19921;-82
2022/01/04 05:19:12;;;;;;;;;;;;;;;6.88;96.42;99615.31;4966516;30;19922;-83
2022/01/04 05:21:43;;;;;;;;;;;;;;;6.89;96.46;99619.59;4967229;30;20024;-81
2022/01/04 05:24:14;;;;;;;;;;;;;;;6.94;96.44;99621.25;4966942;30;19917;-78
2022/01/04 05:26:46;;;;;;;;;;;;;;;6.96;96.45;99610.88;4968750;30;19925;-84
2022/01/04 05:29:17;;;;;;;;;;;;;;;6.90;96.48;99614.41;4968793;30;19922;-78
2022/01/04 05:31:48;;;;;;;;;;;;;;;6.83;97.57;99612.81;4956630;30;19984;-83
2022/01/04 05:34:19;;;;;;;;;;;;;;;6.81;97.63;99609.38;4975073;30;20026;-81
2022/01/04 05:36:51;;;;;;;;;;;;;;;6.80;97.33;99602.50;4973720;30;20024;-75
2022/01/04 05:39:22;;;;;;;;;;;;;;;6.72;99.05;99592.25;4969327;30;19921;-73
2022/01/04 05:41:56;;;;;;;;;;;;;;;6.70;98.70;99585.41;4966286;30;19922;-75
2022/01/04 05:44:27;;;;;;;;;;;;;;;6.70;98.00;99586.25;4968998;30;19977;-79
2022/01/04 05:46:59;;;;;;;;;;;;;;;6.65;98.73;99576.81;4970037;30;20516;-77
2022/01/04 05:49:30;;;;;;;;;;;;;;;6.57;100.00;99580.41;4971048;30;20355;-81
2022/01/04 05:52:04;;;;;;;;;;;;;;;6.56;100.00;99583.88;4967903;30;20089;-80
2022/01/04 05:54:35;;;;;;;;;;;;;;;6.55;100.00;99586.47;4966023;30;20438;-79
2022/01/04 05:57:06;;;;;;;;;;;;;;;6.56;100.00;99588.19;4949088;30;20020;-81
2022/01/04 05:59:37;;;;;;;;;;;;;;;6.55;100.00;99584.75;4964518;30;19926;-76
2022/01/04 06:02:09;;;;;;;;;;;;;;;6.56;100.00;99577.84;4964608;30;19953;-80
2022/01/04 06:04:40;;;;;;;;;;;;;;;6.59;100.00;99569.19;4964863;30;19921;-80
2022/01/04 06:07:11;;;;;;;;;;;;;;;6.61;100.00;99565.66;4964301;30;19932;-75
2022/01/04 06:09:48;;;;;;;;;;;;;;;6.56;100.00;99570.91;4963138;30;19971;-78
2022/01/04 06:14:58;;;;;;;;;;;;;;;6.45;100.00;99565.06;4963815;30;19925;-79
2022/01/04 06:17:31;;;;;;;;;;;;;;;6.46;100.00;99560.75;4964336;30;19918;-80
2022/01/04 06:20:07;;;;;;;;;;;;;;;6.45;100.00;99574.56;4947447;30;20370;-79
2022/01/04 06:22:39;;;;;;;;;;;;;;;6.40;100.00;99564.28;4963383;30;19922;-79
2022/01/04 06:25:12;;;;;;;;;;;;;;;6.38;100.00;99555.69;4947450;30;19922;-79
2022/01/04 06:27:44;;;;;;;;;;;;;;;6.38;100.00;99547.91;4963532;30;20142;-79
2022/01/04 06:30:16;;;;;;;;;;;;;;;6.40;100.00;99538.38;4962647;30;20016;-77
2022/01/04 06:32:47;;;;;;;;;;;;;;;6.39;100.00;99562.56;4963446;30;20474;-80
2022/01/04 06:35:19;;;;;;;;;;;;;;;6.39;100.00;99557.38;4962967;30;19956;-80
2022/01/04 06:37:50;;;;;;;;;;;;;;;6.38;100.00;99564.28;4962747;30;20188;-77
2022/01/04 06:40:21;;;;;;;;;;;;;;;6.39;100.00;99549.59;4962995;30;19971;-79
2022/01/04 06:42:53;;;;;;;;;;;;;;;6.48;100.00;99553.81;4963400;30;19921;-79
2022/01/04 06:45:24;;;;;;;;;;;;;;;6.38;100.00;99563.44;4947252;30;20390;-74
2022/01/04 06:47:55;;;;;;;;;;;;;;;6.36;100.00;99554.88;4962895;30;19925;-80
2022/01/04 06:50:27;;;;;;;;;;;;;;;6.45;100.00;99540.91;4962733;30;19925;-80
2022/01/04 06:52:58;;;;;;;;;;;;;;;6.36;100.00;99534.16;4963169;30;19918;-80
2022/01/04 06:55:29;;;;;;;;;;;;;;;6.40;100.00;99525.44;4962897;30;19956;-81
2022/01/04 06:58:00;;;;;;;;;;;;;;;6.41;100.00;99532.34;4962848;30;20004;-78
2022/01/04 07:00:32;;;;;;;;;;;;;;;6.41;100.00;99521.13;4962241;30;19930;-78
2022/01/04 07:03:03;;;;;;;;;;;;;;;6.46;100.00;99529.69;4962650;30;20295;-81
2022/01/04 07:05:35;;;;;;;;;;;;;;;6.50;100.00;99528.75;4962509;30;20087;-79
2022/01/04 07:08:06;;;;;;;;;;;;;;;6.43;100.00;99533.16;4962320;30;19957;-79
2022/01/04 07:10:37;;;;;;;;;;;;;;;6.44;100.00;99527.13;4962202;30;20377;-78
2022/01/04 07:13:09;;;;;;;;;;;;;;;6.42;100.00;99508.16;4962111;30;20455;-77
2022/01/04 07:15:40;;;;;;;;;;;;;;;6.45;100.00;99499.50;4962716;30;19933;-81
2022/01/04 07:18:11;;;;;;;;;;;;;;;6.48;100.00;99504.63;4962572;30;20298;-78
2022/01/04 07:20:43;;;;;;;;;;;;;;;6.42;100.00;99508.16;4962642;30;19921;-79
2022/01/04 07:23:14;;;;;;;;;;;;;;;6.38;100.00;99507.34;4962155;30;19921;-75
2022/01/04 07:25:45;;;;;;;;;;;;;;;6.39;100.00;99514.25;4961942;30;20272;-77
2022/01/04 07:28:16;;;;;;;;;;;;;;;6.38;100.00;99507.34;4963438;30;20344;-83
2022/01/04 07:30:48;;;;;;;;;;;;;;;6.44;100.00;99497.78;4962704;30;19918;-79
2022/01/04 07:44:04;;;;;;;;;;;;;;;6.43;100.00;99462.44;5361390;24;20301;-78
2022/01/04 07:46:35;;;;;;;;;;;;;;;6.48;100.00;99473.56;4962289;30;19929;-80
2022/01/04 07:49:06;;;;;;;;;;;;;;;6.41;100.00;99467.63;4962960;30;19944;-79
2022/01/04 07:51:37;;;;;;;;;;;;;;;6.42;100.00;99487.44;4962538;30;20069;-78
2022/01/04 07:54:09;;;;;;;;;;;;;;;6.44;100.00;99485.72;4962721;30;19921;-80
2022/01/04 07:56:40;;;;;;;;;;;;;;;6.47;100.00;99490.84;4963080;30;20020;-79
2022/01/04 07:59:11;;;;;;;;;;;;;;;6.52;100.00;99493.31;4962495;30;19921;-79
2022/01/04 08:01:43;;;;;;;;;;;;;;;6.51;100.00;99497.66;4962394;30;19999;-80
2022/01/04 08:04:14;;;;;;;;;;;;;;;6.56;100.00;99493.25;4961468;30;20309;-79
2022/01/04 08:06:45;;;;;;;;;;;;;;;6.58;100.00;99490.63;4962398;30;19926;-74
2022/01/04 08:09:16;;;;;;;;;;;;;;;6.57;100.00;99489.78;4962137;30;20028;-80
2022/01/04 08:11:48;;;;;;;;;;;;;;;6.60;100.00;99488.88;4961648;30;19934;-79
2022/01/04 08:14:19;;;;;;;;;;;;;;;6.63;100.00;99488.81;4961524;30;19944;-74
2022/01/04 08:16:50;;;;;;;;;;;;;;;6.62;100.00;99488.84;4962272;30;19918;-80
2022/01/04 08:19:21;;;;;;;;;;;;;;;6.67;100.00;99492.22;4965034;30;19966;-79
2022/01/04 08:21:53;;;;;;;;;;;;;;;6.66;100.00;99496.53;4970449;30;19943;-74
2022/01/04 08:24:24;;;;;;;;;;;;;;;6.67;100.00;99500.00;4973661;30;19957;-75
2022/01/04 08:26:55;;;;;;;;;;;;;;;6.69;100.00;99500.81;4973738;30;19990;-75
2022/01/04 08:29:27;;;;;;;;;;;;;;;6.71;100.00;99494.72;4974435;30;19929;-77
2022/01/04 08:31:58;;;;;;;;;;;;;;;6.69;100.00;99487.84;4975045;30;20026;-78
2022/01/04 08:34:29;;;;;;;;;;;;;;;6.76;100.00;99494.63;4975317;30;19921;-77
2022/01/04 08:37:01;;;;;;;;;;;;;;;6.72;100.00;99495.56;4973479;30;19928;-75
2022/01/04 08:39:32;;;;;;;;;;;;;;;6.69;100.00;99493.88;4975304;30;20380;-79
2022/01/04 08:42:03;;;;;;;;;;;;;;;6.72;100.00;99513.72;4975205;30;20160;-81
2022/01/04 08:44:39;;;;;;;;;;;;;;;6.72;100.00;99516.28;4975906;30;19929;-78
2022/01/04 08:47:10;;;;;;;;;;;;;;;6.75;100.00;99532.63;4975092;30;19929;-77
2022/01/04 08:49:42;;;;;;;;;;;;;;;6.77;100.00;99524.84;4973134;30;19918;-77
2022/01/04 08:52:13;;;;;;;;;;;;;;;6.77;100.00;99526.56;4971630;30;19922;-74
2022/01/04 08:54:44;;;;;;;;;;;;;;;6.74;100.00;99537.84;4975644;30;19952;-75
2022/01/04 08:57:16;;;;;;;;;;;;;;;6.76;100.00;99533.47;4976417;30;19921;-79
2022/01/04 08:59:47;;;;;;;;;;;;;;;6.79;100.00;99536.00;4977252;30;19947;-73
2022/01/04 09:02:18;;;;;;;;;;;;;;;6.79;100.00;99541.19;4977374;30;19917;-74
2022/01/04 09:04:50;;;;;;;;;;;;;;;6.80;100.00;99529.13;4977787;30;19943;-76
2022/01/04 09:07:21;;;;;;;;;;;;;;;6.83;100.00;99514.38;4975594;30;19976;-76
2022/01/04 09:09:52;;;;;;;;;;;;;;;6.92;99.98;99505.56;4973721;30;19924;-74
2022/01/04 09:12:27;;;;;;;;;;;;;;;6.93;100.00;99502.94;4973818;30;19922;-73
2022/01/04 09:15:26;;;;;;;;;;;;;;;6.98;99.94;99514.97;4976536;30;20075;-74
2022/01/04 09:20:40;;;;;;;;;;;;;;;7.00;99.80;99505.44;4973407;30;20016;-73
2022/01/04 09:23:18;;;;;;;;;;;;;;;6.98;99.69;99507.19;4974986;30;19961;-77
2022/01/04 09:25:50;;;;;;;;;;;;;;;7.02;99.75;99508.84;4977324;30;19922;-75
2022/01/04 09:28:22;;;;;;;;;;;;;;;7.07;99.43;99525.19;4976200;30;19989;-77
2022/01/04 09:30:53;;;;;;;;;;;;;;;7.11;99.58;99534.59;4978350;30;19956;-78
2022/01/04 09:33:24;;;;;;;;;;;;;;;7.08;98.95;99534.63;4976920;30;19947;-78
2022/01/04 09:35:56;;;;;;;;;;;;;;;7.05;99.25;99534.69;4976449;30;19926;-79
2022/01/04 09:38:28;;;;;;;;;;;;;;;7.14;99.29;99536.28;4976778;30;19922;-79
2022/01/04 09:40:59;;;;;;;;;;;;;;;7.16;98.77;99537.94;4976478;30;19954;-80
2022/01/04 09:43:31;;;;;;;;;;;;;;;7.06;98.73;99532.06;4976666;30;19932;-79
2022/01/04 09:46:02;;;;;;;;;;;;;;;7.07;99.16;99531.22;4976192;30;19952;-81
2022/01/04 09:48:34;;;;;;;;;;;;;;;7.05;98.70;99525.19;4975518;30;19921;-81
2022/01/04 09:51:05;;;;;;;;;;;;;;;7.06;98.97;99534.66;4976228;30;20391;-77
2022/01/04 09:53:36;;;;;;;;;;;;;;;7.08;98.99;99539.81;4977851;30;19918;-81
2022/01/04 09:56:08;;;;;;;;;;;;;;;7.10;98.85;99533.75;4977636;30;20094;-80
2022/01/04 09:58:39;;;;;;;;;;;;;;;7.10;98.97;99525.13;4978163;30;19944;-78
2022/01/04 10:01:19;;;;;;;;;;;;;;;7.12;98.78;99524.19;4976603;30;19922;-80
2022/01/04 10:03:51;;;;;;;;;;;;;;;7.17;98.68;99523.25;4976818;30;19925;-78
2022/01/04 10:06:23;;;;;;;;;;;;;;;7.20;98.37;99524.06;4975716;30;19993;-81
2022/01/04 10:09:03;;;;;;;;;;;;;;;7.15;98.63;99525.88;4974805;30;19969;-80
2022/01/04 10:11:34;;;;;;;;;;;;;;;7.19;98.39;99519.75;4975067;30;19929;-80
2022/01/04 10:14:24;;;;;;;;;;;;;;;7.25;98.30;99513.59;4976205;30;19925;-79
2022/01/04 10:17:03;;;;;;;;;;;;;;;7.28;98.38;99506.59;4975276;30;19922;-79
2022/01/04 10:19:35;;;;;;;;;;;;;;;7.36;98.10;99497.81;4975818;30;19929;-79
2022/01/04 10:22:09;;;;;;;;;;;;;;;7.45;97.62;99495.91;4976706;30;19997;-83
2022/01/04 10:24:42;;;;;;;;;;;;;;;7.53;96.91;99495.72;4978193;30;19926;-81
2022/01/04 10:27:28;;;;;;;;;;;;;;;7.52;96.67;99496.63;4975702;30;19921;-80
2022/01/04 10:30:21;;;;;;;;;;;;;;;7.53;96.93;99494.88;4978877;29;19960;-81
2022/01/04 10:32:57;;;;;;;;;;;;;;;7.54;96.69;99496.59;4978906;30;20443;-80
2022/01/04 10:35:32;;;;;;;;;;;;;;;7.58;96.76;99493.91;4979141;30;19938;-81
2022/01/04 10:38:09;;;;;;;;;;;;;;;7.60;96.66;99499.91;4980302;29;19972;-81
2022/01/04 10:40:43;;;;;;;;;;;;;;;7.63;96.34;99497.25;4979627;30;19957;-81
2022/01/04 10:43:18;;;;;;;;;;;;;;;7.63;96.25;99496.38;4980665;30;19922;-80
2022/01/04 10:45:50;;;;;;;;;;;;;;;7.70;96.42;99495.38;4980638;29;19953;-79
2022/01/04 10:48:29;;;;;;;;;;;;;;;7.71;96.10;99499.69;4981006;30;19949;-81
2022/01/04 10:51:05;;;;;;;;;;;;;;;7.65;95.54;99498.06;4976457;30;19923;-76
2022/01/04 10:53:38;;;;;;;;;;;;;;;7.73;95.62;99490.13;4964729;30;19921;-79
2022/01/04 10:56:14;;;;;;;;;;;;;;;7.69;95.42;99488.47;4963646;30;19977;-81
2022/01/04 10:58:47;;;;;;;;;;;;;;;7.76;95.58;99486.59;4962595;30;20000;-79
2022/01/04 11:01:22;;;;;;;;;;;;;;;7.76;95.58;99491.78;4962672;30;20382;-77
2022/01/04 11:03:56;;;;;;;;;;;;;;;7.70;95.64;99481.56;4962678;30;19991;-79
2022/01/04 11:56:51;;;;;;;;;;;;;;;5.11;100.00;99528.00;5421649;24;19941;-75
2022/01/04 12:00:03;;;;;;;;;;;;;;;5.10;100.00;99536.59;4961576;30;19961;-75
2022/01/04 12:03:06;;;;;;;;;;;;;;;5.13;100.00;99531.41;4929209;30;19926;-75
2022/01/04 12:05:58;;;;;;;;;;;;;;;5.23;100.00;99537.31;4961848;30;19930;-76
2022/01/04 12:44:28;;;;;;;;;;;;;;;6.55;100.00;99488.97;1498695;27;19933;-76
2022/01/04 12:47:00;;;;;;;;;;;;;;;6.54;100.00;99494.16;4963969;30;19933;-75
2022/01/04 12:49:32;;;;;;;;;;;;;;;6.50;100.00;99488.16;4964565;30;20385;-75
2022/01/04 12:52:08;;;;;;;;;;;;;;;6.55;100.00;99483.78;4964828;30;19928;-73
2022/01/04 12:54:40;;;;;;;;;;;;;;;6.62;100.00;99483.66;4964359;30;19922;-74
2022/01/04 12:57:13;;;;;;;;;;;;;;;6.68;100.00;99480.97;4965494;30;19924;-75
2022/01/04 12:59:48;;;;;;;;;;;;;;;6.70;100.00;99477.47;4964590;30;20402;-75
2022/01/04 13:02:27;;;;;;;;;;;;;;;6.69;100.00;99480.09;4963561;30;19918;-76
2022/01/04 13:05:05;;;;;;;;;;;;;;;6.66;100.00;99470.63;4963831;30;19993;-74
2022/01/04 13:07:38;;;;;;;;;;;;;;;6.66;100.00;99469.78;4963368;30;20020;-75
2022/01/04 13:10:11;;;;;;;;;;;;;;;6.67;100.00;99471.50;4963039;30;19933;-75
2022/01/04 13:12:44;;;;;;;;;;;;;;;6.72;100.00;99472.28;4964026;30;19926;-75
2022/01/04 13:15:16;;;;;;;;;;;;;;;6.72;100.00;99480.03;4963612;30;20307;-75
2022/01/04 13:17:50;;;;;;;;;;;;;;;6.74;100.00;99478.25;4963767;30;20002;-76
2022/01/04 13:20:22;;;;;;;;;;;;;;;6.84;100.00;99478.94;4963877;30;19922;-76
2022/01/04 13:22:54;;;;;;;;;;;;;;;6.80;99.73;99469.53;4964028;30;19961;-76
2022/01/04 13:25:28;;;;;;;;;;;;;;;6.74;100.00;99479.09;4963915;30;19921;-77
2022/01/04 13:28:02;;;;;;;;;;;;;;;6.84;100.00;99486.72;4963315;30;19940;-76
2022/01/04 13:30:39;;;;;;;;;;;;;;;6.85;100.00;99478.94;4963767;30;19918;-75
2022/01/04 13:33:11;;;;;;;;;;;;;;;6.85;99.27;99488.44;4963523;30;20432;-79
2022/01/04 13:35:47;;;;;;;;;;;;;;;6.86;99.60;99490.13;4963397;30;20375;-77
2022/01/04 13:38:21;;;;;;;;;;;;;;;6.84;99.85;99492.78;4962847;30;19981;-78
2022/01/04 13:40:55;;;;;;;;;;;;;;;6.83;100.00;99493.66;4946912;30;19975;-77
2022/01/04 13:43:32;;;;;;;;;;;;;;;6.82;99.89;99486.75;4963171;30;19937;-75
2022/01/04 13:46:09;;;;;;;;;;;;;;;6.79;99.84;99489.38;4963150;30;19969;-78
2022/01/04 13:48:44;;;;;;;;;;;;;;;6.85;100.00;99497.06;4962921;30;19918;-77
2022/01/04 14:23:08;;;;;;;;;;;;;;;6.49;100.00;99520.13;4963013;30;20004;-75
2022/01/04 14:25:40;;;;;;;;;;;;;;;6.46;100.00;99507.22;4962703;30;19928;-74
2022/01/04 14:28:11;;;;;;;;;;;;;;;6.48;100.00;99527.91;4962448;30;19921;-75
2022/01/04 14:30:43;;;;;;;;;;;;;;;6.51;100.00;99527.88;4961783;30;19921;-74
2022/01/04 14:33:14;;;;;;;;;;;;;;;6.52;100.00;99529.56;4962043;30;19940;-75
2022/01/04 14:35:45;;;;;;;;;;;;;;;6.50;99.77;99531.34;4962803;30;19921;-77
2022/01/04 14:38:17;;;;;;;;;;;;;;;6.48;99.96;99536.53;4962489;30;20363;-76
2022/01/04 14:40:48;;;;;;;;;;;;;;;6.46;100.00;99540.88;4962244;30;19918;-77
2022/01/04 14:43:19;;;;;;;;;;;;;;;6.44;99.63;99537.47;4962047;30;19932;-77
2022/01/04 14:45:51;;;;;;;;;;;;;;;6.43;100.00;99534.91;4962279;30;19928;-77
2022/01/04 14:48:24;;;;;;;;;;;;;;;6.41;99.97;99539.22;4962261;30;20295;-76
2022/01/04 14:50:55;;;;;;;;;;;;;;;6.39;99.74;99547.03;4961936;30;20180;-77
2022/01/04 14:53:26;;;;;;;;;;;;;;;6.42;99.90;99551.31;4961444;30;19925;-76
2022/01/04 15:56:10;;;;;;;;;;;;;;;5.91;98.23;99639.94;5433300;24;19934;-76
2022/01/04 15:58:41;;;;;;;;;;;;;;;5.82;97.64;99644.34;4979410;30;20405;-76
2022/01/04 16:01:13;;;;;;;;;;;;;;;5.75;98.03;99639.28;4976501;30;20393;-76
2022/01/04 16:03:45;;;;;;;;;;;;;;;5.71;98.61;99643.63;4951452;30;20173;-78
2022/01/04 16:29:15;;;;;;;;;;;;;;;5.54;99.28;99655.88;4984388;29;19925;-78
2022/01/04 17:50:19;;;;;;;8.13;2.95;;;;;;;4.49;100.00;99709.22;5219056;22;28903705;-80
2022/01/04 18:51:08;;;;;;;11.23;5.27;;;;;;;4.46;96.41;99741.91;6445158;23;20025;-80
2022/01/04 20:10:57;;;;;;;9.75;3.88;;;;;;;3.83;91.18;99759.31;6463350;23;20032;-85
2022/01/04 22:26:18;;;;;;;10.13;3.60;;;;;;;3.35;92.76;99899.31;6281749;23;20072;-85
2022/01/04 22:40:38;;;;;;;10.82;4.40;;;;;;;3.23;92.18;99905.28;6283015;23;20019;-84
2022/01/04 22:43:25;;;;;;;13.02;3.65;;;;;;;3.15;91.72;99892.38;6252501;23;20088;-81
2022/01/04 22:53:25;;;;;;;16.33;4.15;;;;;;;3.09;92.54;99923.25;6254582;23;20016;-84
2022/01/04 23:00:17;;;;;;;17.75;3.72;;;;;;;3.02;91.54;99921.53;6255156;23;20020;-85
2022/01/04 23:02:51;;;;;;;13.68;3.33;;;;;;;3.00;90.41;99921.50;6228501;23;20118;-84
2022/01/04 23:05:27;;;;;;;21.85;5.43;;;;;;;2.96;90.89;99921.50;6252543;23;20484;-83
2022/01/04 23:08:04;;;;;;;16.17;3.58;;;;;;;2.91;90.43;99913.75;6253174;23;20083;-83
2022/01/04 23:14:12;;;;;;;12.57;3.47;;;;;;;2.88;89.67;99922.34;6253781;23;20019;-83
2022/01/04 23:16:55;;;;;;;13.88;3.30;;;;;;;2.89;89.42;99923.19;6437213;22;20023;-84
2022/01/04 23:19:50;;;;;;;11.18;3.42;;;;;;;2.86;89.51;99921.44;6416735;23;20169;-81
2022/01/04 23:23:19;;;;;;;12.60;3.50;;;;;;;2.89;89.97;99936.91;6442775;23;20005;-83
2022/01/04 23:26:00;;;;;;;11.07;3.58;;;;;;;2.82;89.89;99945.47;6474481;23;20004;-81
2022/01/04 23:35:39;;;;;;;11.63;3.17;;;;;;;2.65;90.55;99945.34;6442615;23;20069;-81
2022/01/04 23:40:55;;;;;;;10.07;3.45;;;;;;;2.60;89.89;99948.78;6467302;22;20032;-85
2022/01/04 23:43:32;;;;;;;11.45;2.90;;;;;;;2.61;89.88;99963.34;6467693;23;20056;-81
2022/01/04 23:46:22;;;;;;;16.80;3.17;;;;;;;2.50;89.25;99947.84;6468389;23;20007;-84
2022/01/04 23:48:53;;;;;;;15.10;3.55;;;;;;;2.50;89.16;99959.00;6468478;23;20090;-83
2022/01/04 23:51:35;;;;;;;20.80;3.90;;;;;;;2.42;88.61;99958.09;6468753;23;20448;-80